Terminal Aerodrome Forecast
Issued by NWS

Home | Current Version | Previous Version | Graphics & Text | Print | Product List | Glossary On
Versions: 1 2 3 4 5 6 7 8 9 10 11 12 13 14 15 16 17 18
000
FTUS43 KGRB 230520
TAFAUW
TAF
KAUW 230520Z 2306/2406 VRB03KT P6SM SCT250
      TEMPO 2307/2311 4SM BR
     FM231400 11007KT P6SM BKN250
     FM231900 16008G14KT P6SM SCT040 BKN200 PROB30 2322/2402 4SM
      -TSRA BR BKN030CB
     FM240200 15006KT 3SM TSRA BR BKN035CB=

USA.gov is the U.S. government's official web portal to all federal, state and local government web resources and services.